Pellston, MI

4:01 AM EDT on July 31, 2015 (GMT -0400)
Pellston Regional Airport Of Emmet County | | Change Station
CLOSE
Current Station
Airport
Location: Pellston,
Elevation: 719 ft
Nearby Weather Stations

Elev 719 ft 45.57 °N, 84.80 °W | Updated 7 minutes ago

Clear
Clear
54 °F
Feels Like 54 °F
N
0
Wind Variable Wind from North

Today
High -- | Low -- °F
--% Chance of Precip.
Yesterday
High -- | Low -- °F
Precip. -- in
6:21 AM 9:08 PM
Full, 100% visible
Pressure 29.84 in
Visibility 10.0 miles
Clouds Clear
Dew Point 50 °F
Humidity 86%
Rainfall 0.00 in
Snow Depth Not available.
UV 0 out of 12
Pollen 7.10 out of 12
Air Quality Not available.
Flu Activity Not available.
METAR KPLN 310754Z AUTO 00000KT 10SM CLR 12/10 A2985 RMK AO2 SLP105 T01220100

More Conditions Fewer Conditions

Pressure 29.84 in
Visibility 10.0 miles
Clouds Clear
Dew Point 50 °F
Humidity 86%
Rainfall 0.00 in
Snow Depth Not available.
UV 0 out of 12
Pollen 7.10 out of 12
Air Quality Not available.
Flu Activity Not available.
METAR KPLN 310754Z AUTO 00000KT 10SM CLR 12/10 A2985 RMK AO2 SLP105 T01220100

More Conditions Fewer Conditions

Nowcast | as of 4:00 am EDT on July 31, 2015

At 5 am...mostly clear. Temperature 66. Southwest winds 7 mph. At 7 am...temperature 67. At 9 am...temperature 71. At 11 am...partly cloudy. Temperature 73. West winds 10 mph.

×

10-Day Weather Forecast

×

Almanac

Astronomy

Jul. 31, 2015 Rise Set
Actual Time
Civil Twilight
Nautical Twilight
Astronomical Twilight
Moon
Length of Visible Light
Length of Day
Tomorrow will be .
, % of the Moon is Illuminated

Today's Extremes

State Highs State Lows

Community

WunderPhotos

Upload Photos

1,842,633 photos uploaded!

WunderBlogs® & News

Nearby

Air Quality

  Air Quality AQ Index Pollutant
Not available.

Snow Depth

Station Depth Elevation

Earthquake Activity

City Distance Mag. Time & Date
Minimum magnitude displayed is 2.5.

Coastal Water Temperatures

Place Temperature

Stations

Nearby Weather Stations

Station Location Temp. Windchill Dew Point Humidity Wind Precip. Elev Updated Type